Observation data for Wolfforth on 06/25/2019      Previous  Date  Next       Current Mesonet Observations  Soil Data  Daily Summary Page  Observations in Plain Language
KWOS 250500Z 14011KT 22/18 A2999 RMK A01 T02240178  RH  080%=      5-min Rain = 0
KWOS 250505Z 14011KT 23/18 A2999 RMK A01 T02250180  RH  080%=      5-min Rain = 0
KWOS 250510Z 14012KT 23/18 A2999 RMK A01 T02280184  RH  080%=      5-min Rain = 0
KWOS 250515Z 15014KT 23/19 A2999 RMK A01 T02300189  RH  082%=      5-min Rain = 0
KWOS 250520Z 15018G23KT 23/19 A2999 RMK A01 T02310187  RH  080%=      5-min Rain = 0
KWOS 250525Z 15016G23KT 23/18 A2999 RMK A01 T02320176  RH  075%=      5-min Rain = 0
KWOS 250530Z 15017G24KT 23/16 A2998 RMK A01 T02300159  RH  067%=      5-min Rain = 0
KWOS 250535Z 15016G22KT 23/15 A2999 RMK A01 T02280154  RH  066%=      5-min Rain = 0
KWOS 250540Z 15015G21KT 23/16 A2999 RMK A01 T02260155  RH  067%=      5-min Rain = 0
KWOS 250545Z 15016KT 23/16 A2998 RMK A01 T02250155  RH  068%=      5-min Rain = 0
KWOS 250550Z 15015KT 22/16 A2998 RMK A01 T02230155  RH  069%=      5-min Rain = 0
KWOS 250555Z 15013G18KT 22/15 A2998 RMK A01 T02210151  RH  067%=      5-min Rain = 0
KWOS 250600Z 15013G19KT 22/15 A2998 RMK A01 T02200148  RH  067%=      5-min Rain = 0
KWOS 250605Z 16011KT 22/15 A2998 RMK A01 T02170149  RH  068%=      5-min Rain = 0
KWOS 250610Z 16010G16KT 22/15 A2998 RMK A01 T02150147  RH  068%=      5-min Rain = 0
KWOS 250615Z 15010KT 21/14 A2998 RMK A01 T02130144  RH  067%=      5-min Rain = 0
KWOS 250620Z 16010KT 21/14 A2998 RMK A01 T02120142  RH  067%=      5-min Rain = 0
KWOS 250625Z 16011KT 21/14 A2998 RMK A01 T02110138  RH  066%=      5-min Rain = 0
KWOS 250630Z 16010G15KT 21/14 A2998 RMK A01 T02090135  RH  065%=      5-min Rain = 0
KWOS 250635Z 17011KT 21/13 A2998 RMK A01 T02080131  RH  064%=      5-min Rain = 0
KWOS 250640Z 17011KT 21/13 A2998 RMK A01 T02060129  RH  063%=      5-min Rain = 0
KWOS 250645Z 17010KT 21/13 A2998 RMK A01 T02050127  RH  063%=      5-min Rain = 0
KWOS 250650Z 17010KT 20/13 A2998 RMK A01 T02030127  RH  064%=      5-min Rain = 0
KWOS 250655Z 18009KT 20/13 A2998 RMK A01 T02010127  RH  065%=      5-min Rain = 0
KWOS 250700Z 18010KT 20/13 A2997 RMK A01 T02000127  RH  065%=      5-min Rain = 0
KWOS 250705Z 17008KT 20/13 A2997 RMK A01 T01990126  RH  065%=      5-min Rain = 0
KWOS 250710Z 17008KT 20/13 A2997 RMK A01 T01970126  RH  066%=      5-min Rain = 0
KWOS 250715Z 18008KT 20/13 A2997 RMK A01 T01950126  RH  067%=      5-min Rain = 0
KWOS 250720Z 18008KT 19/13 A2997 RMK A01 T01940126  RH  067%=      5-min Rain = 0
KWOS 250725Z 18008KT 19/13 A2997 RMK A01 T01920126  RH  068%=      5-min Rain = 0
KWOS 250730Z 18008KT 19/13 A2997 RMK A01 T01900125  RH  068%=      5-min Rain = 0
KWOS 250735Z 18007KT 19/13 A2997 RMK A01 T01900125  RH  069%=      5-min Rain = 0
KWOS 250740Z 17007KT 19/13 A2997 RMK A01 T01890125  RH  069%=      5-min Rain = 0
KWOS 250745Z 17007KT 19/12 A2998 RMK A01 T01890124  RH  069%=      5-min Rain = 0
KWOS 250750Z 17006KT 19/12 A2997 RMK A01 T01880124  RH  069%=      5-min Rain = 0
KWOS 250755Z 17006KT 19/12 A2997 RMK A01 T01850124  RH  070%=      5-min Rain = 0
KWOS 250800Z 17006KT 18/13 A2997 RMK A01 T01840125  RH  071%=      5-min Rain = 0
KWOS 250805Z 17007KT 18/13 A2997 RMK A01 T01820125  RH  072%=      5-min Rain = 0
KWOS 250810Z 17006KT 18/13 A2997 RMK A01 T01810125  RH  072%=      5-min Rain = 0
KWOS 250815Z 17005KT 18/13 A2997 RMK A01 T01800125  RH  073%=      5-min Rain = 0
KWOS 250820Z 16004KT 18/13 A2997 RMK A01 T01790125  RH  074%=      5-min Rain = 0
KWOS 250825Z 17004KT 18/13 A2997 RMK A01 T01770125  RH  074%=      5-min Rain = 0
KWOS 250830Z 16005KT 18/13 A2997 RMK A01 T01750125  RH  075%=      5-min Rain = 0
KWOS 250835Z 17006KT 17/13 A2997 RMK A01 T01730125  RH  076%=      5-min Rain = 0
KWOS 250840Z 18007KT 17/13 A2997 RMK A01 T01740126  RH  076%=      5-min Rain = 0
KWOS 250845Z 18009KT 18/13 A2998 RMK A01 T01760126  RH  076%=      5-min Rain = 0
KWOS 250850Z 18010KT 18/13 A2998 RMK A01 T01770126  RH  075%=      5-min Rain = 0
KWOS 250855Z 18011KT 18/13 A2998 RMK A01 T01780126  RH  074%=      5-min Rain = 0
KWOS 250900Z 18009KT 18/13 A2997 RMK A01 T01790126  RH  074%=      5-min Rain = 0
KWOS 250905Z 18009KT 18/13 A2998 RMK A01 T01770125  RH  074%=      5-min Rain = 0
KWOS 250910Z 18010KT 18/13 A2997 RMK A01 T01780125  RH  074%=      5-min Rain = 0
KWOS 250915Z 19010KT 18/13 A2997 RMK A01 T01790125  RH  074%=      5-min Rain = 0
KWOS 250920Z 19010KT 18/13 A2998 RMK A01 T01790125  RH  074%=      5-min Rain = 0
KWOS 250925Z 19010KT 18/13 A2998 RMK A01 T01780125  RH  074%=      5-min Rain = 0
KWOS 250930Z 19010KT 18/13 A2998 RMK A01 T01780126  RH  074%=      5-min Rain = 0
KWOS 250935Z 19010KT 18/13 A2998 RMK A01 T01760126  RH  075%=      5-min Rain = 0
KWOS 250940Z 19010KT 18/13 A2998 RMK A01 T01760126  RH  076%=      5-min Rain = 0
KWOS 250945Z 20010KT 18/13 A2998 RMK A01 T01750127  RH  076%=      5-min Rain = 0
KWOS 250950Z 20010KT 18/13 A2998 RMK A01 T01750127  RH  076%=      5-min Rain = 0
KWOS 250955Z 20009KT 17/13 A2998 RMK A01 T01740128  RH  077%=      5-min Rain = 0
KWOS 251000Z 21009KT 17/13 A2998 RMK A01 T01730128  RH  078%=      5-min Rain = 0
KWOS 251005Z 20008KT 17/13 A2998 RMK A01 T01730128  RH  078%=      5-min Rain = 0
KWOS 251010Z 20008KT 17/13 A2998 RMK A01 T01720129  RH  079%=      5-min Rain = 0
KWOS 251015Z 20007KT 17/13 A2999 RMK A01 T01710129  RH  079%=      5-min Rain = 0
KWOS 251020Z 20007KT 17/13 A2999 RMK A01 T01700129  RH  080%=      5-min Rain = 0
KWOS 251025Z 20007KT 17/13 A2999 RMK A01 T01690129  RH  080%=      5-min Rain = 0
KWOS 251030Z 20008KT 17/13 A2999 RMK A01 T01690129  RH  081%=      5-min Rain = 0
KWOS 251035Z 20008KT 17/13 A2999 RMK A01 T01690129  RH  081%=      5-min Rain = 0
KWOS 251040Z 21008KT 17/13 A2999 RMK A01 T01670129  RH  081%=      5-min Rain = 0
KWOS 251045Z 21007KT 17/13 A2999 RMK A01 T01660130  RH  082%=      5-min Rain = 0
KWOS 251050Z 21007KT 17/13 A2999 RMK A01 T01650129  RH  083%=      5-min Rain = 0
KWOS 251055Z 21007KT 17/13 A2999 RMK A01 T01650130  RH  083%=      5-min Rain = 0
KWOS 251100Z 21007KT 17/13 A30 RMK A01 T01650130  RH  083%=      5-min Rain = 0
KWOS 251105Z 21007KT 16/13 A30 RMK A01 T01640130  RH  083%=      5-min Rain = 0
KWOS 251110Z 21006KT 16/13 A30 RMK A01 T01640130  RH  084%=      5-min Rain = 0
KWOS 251115Z 22006KT 16/13 A30 RMK A01 T01630130  RH  084%=      5-min Rain = 0
KWOS 251120Z 22005KT 16/13 A30 RMK A01 T01630130  RH  084%=      5-min Rain = 0
KWOS 251125Z 22005KT 16/13 A30 RMK A01 T01620130  RH  084%=      5-min Rain = 0
KWOS 251130Z 22005KT 16/13 A30 RMK A01 T01610130  RH  085%=      5-min Rain = 0
KWOS 251135Z 22006KT 16/13 A30 RMK A01 T01610130  RH  085%=      5-min Rain = 0
KWOS 251140Z 22006KT 16/13 A30 RMK A01 T01610130  RH  085%=      5-min Rain = 0
KWOS 251145Z 23006KT 16/13 A3001 RMK A01 T01600130  RH  086%=      5-min Rain = 0
KWOS 251150Z 23005KT 16/13 A3001 RMK A01 T01600129  RH  086%=      5-min Rain = 0
KWOS 251155Z 23006KT 16/13 A3001 RMK A01 T01600129  RH  085%=      5-min Rain = 0
KWOS 251200Z 23005KT 16/13 A3001 RMK A01 T01600129  RH  085%=      5-min Rain = 0
KWOS 251205Z 22004KT 16/13 A3002 RMK A01 T01620130  RH  085%=      5-min Rain = 0
KWOS 251210Z 22006KT 16/13 A3002 RMK A01 T01620131  RH  085%=      5-min Rain = 0
KWOS 251215Z 22006KT 16/13 A3001 RMK A01 T01630132  RH  085%=      5-min Rain = 0
KWOS 251220Z 21006KT 17/13 A3002 RMK A01 T01650132  RH  084%=      5-min Rain = 0
KWOS 251225Z 21007KT 17/13 A3002 RMK A01 T01670133  RH  083%=      5-min Rain = 0
KWOS 251230Z 22007KT 17/13 A3002 RMK A01 T01710133  RH  082%=      5-min Rain = 0
KWOS 251235Z 22006KT 18/13 A3002 RMK A01 T01750134  RH  080%=      5-min Rain = 0
KWOS 251240Z 21006KT 18/14 A3003 RMK A01 T01790135  RH  079%=      5-min Rain = 0
KWOS 251245Z 21007KT 18/14 A3003 RMK A01 T01830135  RH  076%=      5-min Rain = 0
KWOS 251250Z 21006KT 19/14 A3003 RMK A01 T01870135  RH  075%=      5-min Rain = 0
KWOS 251255Z 22006KT 19/13 A3003 RMK A01 T01890134  RH  074%=      5-min Rain = 0
KWOS 251300Z 22007KT 19/14 A3002 RMK A01 T01920135  RH  072%=      5-min Rain = 0
KWOS 251305Z 22008KT 20/14 A3002 RMK A01 T01950135  RH  071%=      5-min Rain = 0
KWOS 251310Z 23007KT 20/14 A3002 RMK A01 T01970135  RH  070%=      5-min Rain = 0
KWOS 251315Z 23009KT 20/13 A3003 RMK A01 T02010134  RH  068%=      5-min Rain = 0
KWOS 251320Z 22009KT 20/13 A3003 RMK A01 T02040133  RH  066%=      5-min Rain = 0
KWOS 251325Z 22010KT 21/13 A3003 RMK A01 T02050133  RH  066%=      5-min Rain = 0
KWOS 251330Z 22011KT 21/13 A3004 RMK A01 T02090134  RH  065%=      5-min Rain = 0
KWOS 251335Z 22011KT 21/14 A3004 RMK A01 T02120136  RH  064%=      5-min Rain = 0
KWOS 251340Z 22012KT 22/14 A3004 RMK A01 T02150138  RH  064%=      5-min Rain = 0
KWOS 251345Z 22013KT 22/14 A3004 RMK A01 T02170141  RH  065%=      5-min Rain = 0
KWOS 251350Z 22012KT 22/14 A3004 RMK A01 T02200144  RH  065%=      5-min Rain = 0
KWOS 251355Z 22013KT 22/15 A3004 RMK A01 T02230146  RH  064%=      5-min Rain = 0
KWOS 251400Z 21014KT 23/15 A3004 RMK A01 T02250149  RH  065%=      5-min Rain = 0
KWOS 251405Z 21015G20KT 23/15 A3004 RMK A01 T02300152  RH  064%=      5-min Rain = 0
KWOS 251410Z 21017KT 23/15 A3004 RMK A01 T02300154  RH  065%=      5-min Rain = 0
KWOS 251415Z 22015KT 23/16 A3004 RMK A01 T02330156  RH  065%=      5-min Rain = 0
KWOS 251420Z 22016G21KT 24/16 A3004 RMK A01 T02350157  RH  064%=      5-min Rain = 0
KWOS 251425Z 22016G23KT 24/16 A3004 RMK A01 T02390157  RH  063%=      5-min Rain = 0
KWOS 251430Z 21014G19KT 24/16 A3004 RMK A01 T02400157  RH  063%=      5-min Rain = 0
KWOS 251435Z 22016KT 24/16 A3004 RMK A01 T02410158  RH  063%=      5-min Rain = 0
KWOS 251440Z 22017G23KT 24/16 A3004 RMK A01 T02440158  RH  062%=      5-min Rain = 0
KWOS 251445Z 22017G22KT 25/16 A3004 RMK A01 T02470159  RH  061%=      5-min Rain = 0
KWOS 251450Z 21015G20KT 25/16 A3004 RMK A01 T02480160  RH  061%=      5-min Rain = 0
KWOS 251455Z 22016KT 25/16 A3004 RMK A01 T02520159  RH  059%=      5-min Rain = 0
KWOS 251500Z 22016KT 25/16 A3004 RMK A01 T02510160  RH  060%=      5-min Rain = 0
KWOS 251505Z 22015KT 25/16 A3003 RMK A01 T02510160  RH  059%=      5-min Rain = 0
KWOS 251510Z 22015KT 26/16 A3003 RMK A01 T02550160  RH  058%=      5-min Rain = 0
KWOS 251515Z 22015G20KT 26/16 A3003 RMK A01 T02590159  RH  057%=      5-min Rain = 0
KWOS 251520Z 22015G20KT 26/16 A3003 RMK A01 T02640158  RH  055%=      5-min Rain = 0
KWOS 251525Z 21017KT 26/16 A3003 RMK A01 T02620157  RH  055%=      5-min Rain = 0
KWOS 251530Z 21015KT 27/16 A3003 RMK A01 T02650158  RH  054%=      5-min Rain = 0
KWOS 251535Z 22014KT 27/16 A3003 RMK A01 T02680158  RH  053%=      5-min Rain = 0
KWOS 251540Z 21014KT 27/16 A3003 RMK A01 T02680158  RH  053%=      5-min Rain = 0
KWOS 251545Z 22013G19KT 27/16 A3003 RMK A01 T02700157  RH  053%=      5-min Rain = 0
KWOS 251550Z 20015KT 27/16 A3003 RMK A01 T02720156  RH  051%=      5-min Rain = 0
KWOS 251555Z 20015KT 28/16 A3003 RMK A01 T02760156  RH  050%=      5-min Rain = 0
KWOS 251600Z 21015KT 28/16 A3003 RMK A01 T02770155  RH  050%=      5-min Rain = 0
KWOS 251605Z 22012KT 28/16 A3003 RMK A01 T02790156  RH  049%=      5-min Rain = 0
KWOS 251610Z 21013G18KT 29/16 A3003 RMK A01 T02860155  RH  047%=      5-min Rain = 0
KWOS 251615Z 20012G17KT 28/15 A3003 RMK A01 T02840154  RH  047%=      5-min Rain = 0
KWOS 251620Z 21013G18KT 29/15 A3003 RMK A01 T02850152  RH  046%=      5-min Rain = 0
KWOS 251625Z 21012KT 29/15 A3003 RMK A01 T02870152  RH  046%=      5-min Rain = 0
KWOS 251630Z 20011KT 29/15 A3003 RMK A01 T02900154  RH  046%=      5-min Rain = 0
KWOS 251635Z 20012KT 30/15 A3003 RMK A01 T02960153  RH  044%=      5-min Rain = 0
KWOS 251640Z 20011G17KT 30/16 A3003 RMK A01 T02970155  RH  044%=      5-min Rain = 0
KWOS 251645Z 20010G16KT 30/15 A3003 RMK A01 T03010153  RH  043%=      5-min Rain = 0
KWOS 251650Z 18010KT 30/15 A3003 RMK A01 T03020153  RH  042%=      5-min Rain = 0
KWOS 251655Z 19010KT 31/15 A3003 RMK A01 T03050151  RH  041%=      5-min Rain = 0
KWOS 251700Z 19010KT 30/15 A3003 RMK A01 T03020148  RH  041%=      5-min Rain = 0
KWOS 251705Z 20007KT 31/15 A3003 RMK A01 T03070151  RH  040%=      5-min Rain = 0
KWOS 251710Z 19010KT 31/15 A3003 RMK A01 T03130150  RH  039%=      5-min Rain = 0
KWOS 251715Z 19009KT 31/15 A3003 RMK A01 T03130150  RH  039%=      5-min Rain = 0
KWOS 251720Z 21009G15KT 32/15 A3003 RMK A01 T03160145  RH  037%=      5-min Rain = 0
KWOS 251725Z 20009G14KT 32/15 A3002 RMK A01 T03180148  RH  037%=      5-min Rain = 0
KWOS 251730Z 18010KT 32/15 A3002 RMK A01 T03170149  RH  038%=      5-min Rain = 0
KWOS 251735Z 20009KT 32/15 A3002 RMK A01 T03220145  RH  036%=      5-min Rain = 0
KWOS 251740Z 19009G15KT 32/14 A3002 RMK A01 T03220143  RH  035%=      5-min Rain = 0
KWOS 251745Z 20008G14KT 32/14 A3002 RMK A01 T03230140  RH  034%=      5-min Rain = 0
KWOS 251750Z 19010G15KT 33/14 A3002 RMK A01 T03260137  RH  033%=      5-min Rain = 0
KWOS 251755Z 19008G13KT 33/14 A3002 RMK A01 T03320137  RH  032%=      5-min Rain = 0
KWOS 251800Z 20010KT 33/13 A3001 RMK A01 T03300130  RH  031%=      5-min Rain = 0
KWOS 251805Z 19009G14KT 33/14 A3001 RMK A01 T03300137  RH  033%=      5-min Rain = 0
KWOS 251810Z 17009G14KT 34/13 A3001 RMK A01 T03350130  RH  030%=      5-min Rain = 0
KWOS 251815Z 18008G13KT 34/12 A3001 RMK A01 T03380124  RH  028%=      5-min Rain = 0
KWOS 251820Z 17009G18KT 34/12 A3001 RMK A01 T03390119  RH  027%=      5-min Rain = 0
KWOS 251825Z 17007KT 34/12 A3001 RMK A01 T03390122  RH  028%=      5-min Rain = 0
KWOS 251830Z 19009KT 34/12 A3001 RMK A01 T03430117  RH  026%=      5-min Rain = 0
KWOS 251835Z 17010KT 34/11 A3001 RMK A01 T03410107  RH  025%=      5-min Rain = 0
KWOS 251840Z 17010G16KT 35/10 A3001 RMK A01 T03470096  RH  022%=      5-min Rain = 0
KWOS 251845Z 18009G15KT 35/09 A3001 RMK A01 T03470089  RH  021%=      5-min Rain = 0
KWOS 251850Z 17012G17KT 35/08 A3001 RMK A01 T03510084  RH  020%=      5-min Rain = 0
KWOS 251855Z 17011KT 35/09 A3001 RMK A01 T03480085  RH  020%=      5-min Rain = 0
KWOS 251900Z 17010G15KT 35/08 A30 RMK A01 T03510080  RH  020%=      5-min Rain = 0
KWOS 251905Z 17012G17KT 35/09 A30 RMK A01 T03520088  RH  021%=      5-min Rain = 0
KWOS 251910Z 19012G22KT 35/09 A30 RMK A01 T03480088  RH  021%=      5-min Rain = 0
KWOS 251915Z 17010KT 35/08 A30 RMK A01 T03520084  RH  020%=      5-min Rain = 0
KWOS 251920Z 17007G13KT 35/08 A30 RMK A01 T03520083  RH  020%=      5-min Rain = 0
KWOS 251925Z 16011G16KT 35/08 A30 RMK A01 T03540080  RH  019%=      5-min Rain = 0
KWOS 251930Z 16006G13KT 35/08 A30 RMK A01 T03520081  RH  020%=      5-min Rain = 0
KWOS 251935Z 18012G18KT 36/08 A2999 RMK A01 T03580077  RH  018%=      5-min Rain = 0
KWOS 251940Z 17012G19KT 36/07 A2999 RMK A01 T03570072  RH  018%=      5-min Rain = 0
KWOS 251945Z 15008G15KT 36/08 A2999 RMK A01 T03560077  RH  019%=      5-min Rain = 0
KWOS 251950Z 18013G20KT 36/08 A2999 RMK A01 T03570083  RH  019%=      5-min Rain = 0
KWOS 251955Z 15015G21KT 36/07 A2999 RMK A01 T03570073  RH  018%=      5-min Rain = 0
KWOS 252000Z 14016G22KT 36/07 A2999 RMK A01 T03590070  RH  017%=      5-min Rain = 0
KWOS 252005Z 15014G22KT 36/07 A2999 RMK A01 T03590073  RH  018%=      5-min Rain = 0
KWOS 252010Z 17014G21KT 36/07 A2999 RMK A01 T03590065  RH  017%=      5-min Rain = 0
KWOS 252015Z 16011G16KT 36/07 A2999 RMK A01 T03610068  RH  017%=      5-min Rain = 0
KWOS 252020Z 16012G21KT 36/08 A2998 RMK A01 T03580078  RH  019%=      5-min Rain = 0
KWOS 252025Z 17014G22KT 36/08 A2998 RMK A01 T03570077  RH  019%=      5-min Rain = 0
KWOS 252030Z 17011G18KT 36/08 A2998 RMK A01 T03610078  RH  018%=      5-min Rain = 0
KWOS 252035Z 16011G17KT 36/07 A2998 RMK A01 T03620073  RH  017%=      5-min Rain = 0
KWOS 252040Z 16010G17KT 36/09 A2998 RMK A01 T03630091  RH  020%=      5-min Rain = 0
KWOS 252045Z 15008G19KT 36/10 A2997 RMK A01 T03550097  RH  021%=      5-min Rain = 0
KWOS 252050Z 12015G21KT 36/13 A2997 RMK A01 T03600126  RH  025%=      5-min Rain = 0
KWOS 252055Z 16013G21KT 36/12 A2997 RMK A01 T03590115  RH  024%=      5-min Rain = 0
KWOS 252100Z 16012G19KT 36/11 A2997 RMK A01 T03570107  RH  023%=      5-min Rain = 0
KWOS 252105Z 15013G24KT 36/11 A2997 RMK A01 T03560112  RH  024%=      5-min Rain = 0
KWOS 252110Z 15015G21KT 36/12 A2997 RMK A01 T03600116  RH  024%=      5-min Rain = 0
KWOS 252115Z 15014G20KT 36/12 A2997 RMK A01 T03620120  RH  024%=      5-min Rain = 0
KWOS 252120Z 15013G28KT 36/12 A2997 RMK A01 T03580124  RH  025%=      5-min Rain = 0
KWOS 252125Z 15018G24KT 35/12 A2997 RMK A01 T03540120  RH  025%=      5-min Rain = 0
KWOS 252130Z 16016G25KT 35/12 A2996 RMK A01 T03530122  RH  026%=      5-min Rain = 0
KWOS 252135Z 16015G23KT 35/13 A2996 RMK A01 T03530125  RH  026%=      5-min Rain = 0
KWOS 252140Z 15017KT 35/13 A2996 RMK A01 T03510126  RH  027%=      5-min Rain = 0
KWOS 252145Z 15013G22KT 35/12 A2996 RMK A01 T03510118  RH  025%=      5-min Rain = 0
KWOS 252150Z 15015G23KT 35/11 A2996 RMK A01 T03490113  RH  025%=      5-min Rain = 0
KWOS 252155Z 14018G25KT 35/11 A2996 RMK A01 T03490113  RH  025%=      5-min Rain = 0
KWOS 252200Z 14016G22KT 35/11 A2996 RMK A01 T03510113  RH  025%=      5-min Rain = 0
KWOS 252205Z 14015G21KT 35/11 A2996 RMK A01 T03510111  RH  024%=      5-min Rain = 0
KWOS 252210Z 15015G21KT 35/10 A2995 RMK A01 T03520104  RH  023%=      5-min Rain = 0
KWOS 252215Z 15017G22KT 35/11 A2995 RMK A01 T03520105  RH  023%=      5-min Rain = 0
KWOS 252220Z 13015G21KT 35/11 A2995 RMK A01 T03500110  RH  024%=      5-min Rain = 0
KWOS 252225Z 14016G22KT 35/11 A2995 RMK A01 T03520107  RH  023%=      5-min Rain = 0
KWOS 252230Z 14015G24KT 35/11 A2994 RMK A01 T03530105  RH  023%=      5-min Rain = 0
KWOS 252235Z 14016G26KT 35/11 A2995 RMK A01 T03520106  RH  023%=      5-min Rain = 0
KWOS 252240Z 14017G25KT 35/11 A2995 RMK A01 T03490110  RH  024%=      5-min Rain = 0
KWOS 252245Z 14016G22KT 35/12 A2994 RMK A01 T03510115  RH  025%=      5-min Rain = 0
KWOS 252250Z 16015G21KT 35/11 A2994 RMK A01 T03510106  RH  023%=      5-min Rain = 0
KWOS 252255Z 15014G21KT 35/11 A2994 RMK A01 T03480106  RH  024%=      5-min Rain = 0
KWOS 252300Z 14018G24KT 35/11 A2994 RMK A01 T03470109  RH  024%=      5-min Rain = 0
KWOS 252305Z 15016G23KT 35/11 A2994 RMK A01 T03450111  RH  025%=      5-min Rain = 0
KWOS 252310Z 14017G22KT 34/12 A2994 RMK A01 T03440121  RH  027%=      5-min Rain = 0
KWOS 252315Z 15017G24KT 34/12 A2994 RMK A01 T03440120  RH  027%=      5-min Rain = 0
KWOS 252320Z 15015G22KT 34/12 A2994 RMK A01 T03420122  RH  027%=      5-min Rain = 0
KWOS 252325Z 14016G25KT 34/13 A2994 RMK A01 T03400131  RH  029%=      5-min Rain = 0
KWOS 252330Z 13017G27KT 34/14 A2993 RMK A01 T03370139  RH  032%=      5-min Rain = 0
KWOS 252335Z 14018G24KT 34/14 A2993 RMK A01 T03370140  RH  032%=      5-min Rain = 0
KWOS 252340Z 13019KT 34/14 A2993 RMK A01 T03350142  RH  033%=      5-min Rain = 0
KWOS 252345Z 14020G27KT 33/14 A2993 RMK A01 T03340141  RH  033%=      5-min Rain = 0
KWOS 252350Z 14016G21KT 33/14 A2993 RMK A01 T03320142  RH  033%=      5-min Rain = 0
KWOS 252355Z 14019G26KT 33/14 A2993 RMK A01 T03300141  RH  033%=      5-min Rain = 0
KWOS 260000Z 14018G24KT 33/15 A2993 RMK A01 T03290147  RH  035%=      5-min Rain = 0
KWOS 260005Z 14018G26KT 33/15 A2993 RMK A01 T03280146  RH  035%=      5-min Rain = 0
KWOS 260010Z 13020G29KT 33/15 A2993 RMK A01 T03260147  RH  036%=      5-min Rain = 0
KWOS 260015Z 14021G27KT 32/15 A2993 RMK A01 T03240147  RH  036%=      5-min Rain = 0
KWOS 260020Z 14020G27KT 32/15 A2993 RMK A01 T03220148  RH  037%=      5-min Rain = 0
KWOS 260025Z 14020KT 32/15 A2993 RMK A01 T03200148  RH  037%=      5-min Rain = 0
KWOS 260030Z 14018G26KT 32/15 A2993 RMK A01 T03200148  RH  037%=      5-min Rain = 0
KWOS 260035Z 14021G28KT 32/15 A2993 RMK A01 T03190146  RH  037%=      5-min Rain = 0
KWOS 260040Z 13019G26KT 32/15 A2993 RMK A01 T03180148  RH  037%=      5-min Rain = 0
KWOS 260045Z 14019G25KT 32/15 A2993 RMK A01 T03160147  RH  038%=      5-min Rain = 0
KWOS 260050Z 14018G24KT 32/15 A2994 RMK A01 T03160148  RH  038%=      5-min Rain = 0
KWOS 260055Z 14019G25KT 31/15 A2994 RMK A01 T03140148  RH  038%=      5-min Rain = 0
KWOS 260100Z 14019G24KT 31/15 A2994 RMK A01 T03120149  RH  039%=      5-min Rain = 0
KWOS 260105Z 14018G26KT 31/15 A2995 RMK A01 T03110150  RH  039%=      5-min Rain = 0
KWOS 260110Z 14019G26KT 31/15 A2995 RMK A01 T03090150  RH  040%=      5-min Rain = 0
KWOS 260115Z 13019G26KT 31/15 A2995 RMK A01 T03060153  RH  042%=      5-min Rain = 0
KWOS 260120Z 13020G25KT 30/15 A2996 RMK A01 T03030152  RH  042%=      5-min Rain = 0
KWOS 260125Z 14019G26KT 30/15 A2996 RMK A01 T03010153  RH  042%=      5-min Rain = 0
KWOS 260130Z 14018G25KT 30/15 A2996 RMK A01 T02990152  RH  043%=      5-min Rain = 0
KWOS 260135Z 14020G27KT 30/15 A2996 RMK A01 T02970152  RH  043%=      5-min Rain = 0
KWOS 260140Z 13018G24KT 29/15 A2996 RMK A01 T02940152  RH  044%=      5-min Rain = 0
KWOS 260145Z 13021G27KT 29/15 A2997 RMK A01 T02920152  RH  045%=      5-min Rain = 0
KWOS 260150Z 13019G24KT 29/15 A2997 RMK A01 T02890152  RH  045%=      5-min Rain = 0
KWOS 260155Z 12019G24KT 29/15 A2997 RMK A01 T02860154  RH  047%=      5-min Rain = 0
KWOS 260200Z 12018G25KT 28/16 A2997 RMK A01 T02830155  RH  048%=      5-min Rain = 0
KWOS 260205Z 12017G25KT 28/16 A2998 RMK A01 T02800155  RH  049%=      5-min Rain = 0
KWOS 260210Z 12019G25KT 28/15 A2998 RMK A01 T02780154  RH  049%=      5-min Rain = 0
KWOS 260215Z 12018G24KT 28/16 A2999 RMK A01 T02770155  RH  049%=      5-min Rain = 0
KWOS 260220Z 12016G22KT 28/16 A30 RMK A01 T02760155  RH  050%=      5-min Rain = 0
KWOS 260225Z 12018G23KT 27/16 A30 RMK A01 T02740155  RH  050%=      5-min Rain = 0
KWOS 260230Z 12017G23KT 27/16 A30 RMK A01 T02730156  RH  051%=      5-min Rain = 0
KWOS 260235Z 12016G24KT 27/16 A3001 RMK A01 T02720156  RH  051%=      5-min Rain = 0
KWOS 260240Z 12018G23KT 27/16 A3001 RMK A01 T02700157  RH  052%=      5-min Rain = 0
KWOS 260245Z 12017G22KT 27/16 A3001 RMK A01 T02690159  RH  053%=      5-min Rain = 0
KWOS 260250Z 12018G23KT 27/16 A3002 RMK A01 T02690160  RH  054%=      5-min Rain = 0
KWOS 260255Z 13017KT 27/16 A3002 RMK A01 T02680160  RH  054%=      5-min Rain = 0
KWOS 260300Z 13016G23KT 27/16 A3002 RMK A01 T02670161  RH  055%=      5-min Rain = 0
KWOS 260305Z 13018G24KT 27/16 A3003 RMK A01 T02670162  RH  055%=      5-min Rain = 0
KWOS 260310Z 13017G24KT 27/16 A3003 RMK A01 T02660162  RH  056%=      5-min Rain = 0
KWOS 260315Z 14018G24KT 27/16 A3003 RMK A01 T02650163  RH  056%=      5-min Rain = 0
KWOS 260320Z 14017G23KT 27/16 A3004 RMK A01 T02650164  RH  057%=      5-min Rain = 0
KWOS 260325Z 14017KT 26/17 A3004 RMK A01 T02640165  RH  057%=      5-min Rain = 0
KWOS 260330Z 13015G21KT 26/17 A3004 RMK A01 T02630165  RH  058%=      5-min Rain = 0
KWOS 260335Z 12014G19KT 26/17 A3005 RMK A01 T02620166  RH  058%=      5-min Rain = 0
KWOS 260340Z 11013KT 26/17 A3006 RMK A01 T02620167  RH  059%=      5-min Rain = 0
KWOS 260345Z 10014KT 26/17 A3007 RMK A01 T02610167  RH  059%=      5-min Rain = 0
KWOS 260350Z 09012KT 26/17 A3008 RMK A01 T02610168  RH  059%=      5-min Rain = 0
KWOS 260355Z 08014KT 26/17 A3009 RMK A01 T02610168  RH  060%=      5-min Rain = 0
KWOS 260400Z 07013KT 26/17 A301 RMK A01 T02610167  RH  059%=      5-min Rain = 0
KWOS 260405Z 06014KT 26/17 A301 RMK A01 T02600165  RH  058%=      5-min Rain = 0
KWOS 260410Z 06016KT 26/16 A3011 RMK A01 T02570163  RH  059%=      5-min Rain = 0
KWOS 260415Z 06019KT 26/16 A3011 RMK A01 T02580161  RH  058%=      5-min Rain = 0
KWOS 260420Z 06019G25KT 26/16 A3011 RMK A01 T02590162  RH  058%=      5-min Rain = 0
KWOS 260425Z 07020G25KT 26/16 A3012 RMK A01 T02600163  RH  058%=      5-min Rain = 0
KWOS 260430Z 07018G23KT 26/16 A3012 RMK A01 T02590164  RH  058%=      5-min Rain = 0
KWOS 260435Z 08017G25KT 26/17 A3011 RMK A01 T02590165  RH  059%=      5-min Rain = 0
KWOS 260440Z 09022G28KT 26/17 A3011 RMK A01 T02590166  RH  059%=      5-min Rain = 0
KWOS 260445Z 09020G26KT 26/17 A3012 RMK A01 T02590165  RH  059%=      5-min Rain = 0
KWOS 260450Z 08020G26KT 26/16 A3012 RMK A01 T02570162  RH  058%=      5-min Rain = 0
KWOS 260455Z 08017G23KT 26/16 A3012 RMK A01 T02560161  RH  058%=      5-min Rain = 0

Page generated in 0.0285 seconds.